createdAt,value
2023-04-21T00:01:37.064Z,27.33
2023-04-21T00:04:04.297Z,27.48
2023-04-21T00:06:31.652Z,28.35
2023-04-21T00:08:58.785Z,30.98
2023-04-21T00:11:25.702Z,26.38
2023-04-21T00:13:56.608Z,24.88
2023-04-21T00:16:23.560Z,24.33
2023-04-21T00:18:50.809Z,27.48
2023-04-21T00:21:18.001Z,30.08
2023-04-21T00:23:45.110Z,30.45
2023-04-21T00:26:12.251Z,26.58
2023-04-21T00:28:39.606Z,27.40
2023-04-21T00:31:06.646Z,28.52
2023-04-21T00:33:33.743Z,29.58
2023-04-21T00:36:01.052Z,29.30
2023-04-21T00:38:27.950Z,27.58
2023-04-21T00:40:55.074Z,29.25
2023-04-21T00:43:22.060Z,28.33
2023-04-21T00:45:49.043Z,24.60
2023-04-21T00:48:16.001Z,28.88
2023-04-21T00:50:44.141Z,24.23
2023-04-21T00:53:12.834Z,21.75
2023-04-21T00:55:40.466Z,24.58
2023-04-21T00:58:07.662Z,26.08
2023-04-21T01:00:34.728Z,25.42
2023-04-21T01:03:02.193Z,20.83
2023-04-21T01:05:29.195Z,24.17
2023-04-21T01:07:56.292Z,23.45
2023-04-21T01:10:23.344Z,23.35
2023-04-21T01:12:51.981Z,24.80
2023-04-21T01:15:19.073Z,22.17
2023-04-21T01:17:46.230Z,23.17
2023-04-21T01:20:14.805Z,21.60
2023-04-21T01:22:43.223Z,24.65
2023-04-21T01:25:10.703Z,23.30
2023-04-21T01:27:37.968Z,23.70
2023-04-21T01:30:08.874Z,24.05
2023-04-21T01:32:36.526Z,22.70
2023-04-21T01:35:03.885Z,24.25
2023-04-21T01:37:32.572Z,25.48
2023-04-21T01:40:01.817Z,26.80
2023-04-21T01:42:30.695Z,24.10
2023-04-21T01:44:58.206Z,27.92
2023-04-21T01:47:26.205Z,25.83
2023-04-21T01:49:54.070Z,25.45
2023-04-21T01:52:21.870Z,25.90
2023-04-21T01:54:49.109Z,27.88
2023-04-21T01:57:17.630Z,25.25
2023-04-21T01:59:45.268Z,25.08
2023-04-21T02:02:12.430Z,24.98
2023-04-21T02:04:39.967Z,25.88
2023-04-21T02:07:07.256Z,27.08
2023-04-21T02:09:34.455Z,24.70
2023-04-21T02:12:02.700Z,24.08
2023-04-21T02:14:29.918Z,22.80
2023-04-21T02:16:57.101Z,24.13
2023-04-21T02:19:24.938Z,25.15
2023-04-21T02:21:51.974Z,21.92
2023-04-21T02:24:19.337Z,22.85
2023-04-21T02:26:46.403Z,23.17
2023-04-21T02:29:13.532Z,23.35
2023-04-21T02:31:54.205Z,24.20
2023-04-21T02:34:24.826Z,23.52
2023-04-21T02:36:51.814Z,23.15
2023-04-21T02:39:19.132Z,22.73
2023-04-21T02:41:46.407Z,22.02
2023-04-21T02:44:13.434Z,24.77
2023-04-21T02:46:41.925Z,23.45
2023-04-21T02:49:09.897Z,22.65
2023-04-21T02:51:37.370Z,23.52
2023-04-21T02:54:04.507Z,23.88
2023-04-21T02:56:32.244Z,21.33
2023-04-21T02:58:59.264Z,23.90
2023-04-21T03:01:26.456Z,21.55
2023-04-21T03:03:53.451Z,22.20
2023-04-21T03:06:20.664Z,28.48
2023-04-21T03:08:47.667Z,20.75
2023-04-21T03:11:14.974Z,26.73
2023-04-21T03:13:42.073Z,21.25
2023-04-21T03:16:09.276Z,22.75
2023-04-21T03:18:36.618Z,24.27
2023-04-21T03:21:03.685Z,20.65
2023-04-21T03:23:30.699Z,22.15
2023-04-21T03:25:57.611Z,21.88
2023-04-21T03:28:24.491Z,24.77
2023-04-21T03:30:51.440Z,24.05
2023-04-21T03:33:18.345Z,23.17
2023-04-21T03:35:45.414Z,21.75
2023-04-21T03:38:12.325Z,20.50
2023-04-21T03:40:39.288Z,20.77
2023-04-21T03:43:06.206Z,21.33
2023-04-21T03:45:35.824Z,25.15
2023-04-21T03:48:03.944Z,28.00
2023-04-21T03:50:31.113Z,22.60
2023-04-21T03:52:58.060Z,22.23
2023-04-21T03:55:24.991Z,24.20
2023-04-21T03:57:52.100Z,25.25
2023-04-21T04:00:19.139Z,23.40
2023-04-21T04:02:46.355Z,22.42
2023-04-21T04:05:13.582Z,23.73
2023-04-21T04:07:41.092Z,26.67
2023-04-21T04:10:08.201Z,22.13
2023-04-21T04:12:35.087Z,25.60
2023-04-21T04:15:02.989Z,27.10
2023-04-21T04:17:29.963Z,25.02
2023-04-21T04:19:56.995Z,28.42
2023-04-21T04:22:24.042Z,24.42
2023-04-21T04:24:51.527Z,28.98
2023-04-21T04:27:20.763Z,23.88
2023-04-21T04:29:49.601Z,21.52
2023-04-21T04:32:16.554Z,22.98
2023-04-21T04:34:43.625Z,24.85
2023-04-21T04:37:11.511Z,27.50
2023-04-21T04:39:38.558Z,28.40
2023-04-21T04:42:12.147Z,26.85
2023-04-21T04:44:39.137Z,26.48
2023-04-21T04:47:06.292Z,28.38
2023-04-21T04:49:33.525Z,26.13
2023-04-21T04:52:02.205Z,26.98
2023-04-21T04:54:29.466Z,28.15
2023-04-21T04:56:58.081Z,22.77
2023-04-21T04:59:25.024Z,20.02
2023-04-21T05:01:52.851Z,24.98
2023-04-21T05:04:20.903Z,24.15
2023-04-21T05:06:48.301Z,29.17
2023-04-21T05:09:15.344Z,21.88
2023-04-21T05:11:42.343Z,22.85
2023-04-21T05:14:09.592Z,24.73
2023-04-21T05:16:36.578Z,20.13
2023-04-21T05:19:04.191Z,21.13
2023-04-21T05:21:31.530Z,24.55
2023-04-21T05:23:59.397Z,27.80
2023-04-21T05:26:27.965Z,23.02
2023-04-21T05:28:59.136Z,17.20
2023-04-21T05:31:26.236Z,20.02
2023-04-21T05:33:53.782Z,21.52
2023-04-21T05:36:20.668Z,18.58
2023-04-21T05:38:47.708Z,21.90
2023-04-21T05:41:14.856Z,20.60
2023-04-21T05:43:41.785Z,21.67
2023-04-21T05:46:11.869Z,21.15
2023-04-21T05:48:38.881Z,17.38
2023-04-21T05:51:23.980Z,20.17
2023-04-21T05:53:51.050Z,27.15
2023-04-21T05:56:18.053Z,16.02
2023-04-21T05:58:45.095Z,17.98
2023-04-21T06:01:13.224Z,21.92
2023-04-21T06:03:40.362Z,20.02
2023-04-21T06:06:07.663Z,15.63
2023-04-21T06:08:35.001Z,21.25
2023-04-21T06:11:01.930Z,15.60
2023-04-21T06:13:29.112Z,19.17
2023-04-21T06:15:56.150Z,21.77
2023-04-21T06:18:24.362Z,14.00
2023-04-21T06:20:52.654Z,15.77
2023-04-21T06:23:19.753Z,13.35
2023-04-21T06:25:47.003Z,18.20
2023-04-21T06:28:14.051Z,15.55
2023-04-21T06:30:41.083Z,17.33
2023-04-21T06:33:08.153Z,17.48
2023-04-21T06:35:35.057Z,21.48
2023-04-21T06:38:01.934Z,20.27
2023-04-21T06:40:28.951Z,19.02
2023-04-21T06:42:55.986Z,17.40
2023-04-21T06:45:23.084Z,23.55
2023-04-21T06:47:50.115Z,17.17
2023-04-21T06:50:17.020Z,12.30
2023-04-21T06:52:43.903Z,13.45
2023-04-21T06:55:11.419Z,14.88
2023-04-21T06:57:38.345Z,15.40
2023-04-21T07:00:06.089Z,18.10
2023-04-21T07:02:33.427Z,15.13
2023-04-21T07:05:00.534Z,14.88
2023-04-21T07:07:27.821Z,11.25
2023-04-21T07:09:54.777Z,12.55
2023-04-21T07:12:22.037Z,12.70
2023-04-21T07:14:48.960Z,14.02
2023-04-21T07:17:16.135Z,14.60
2023-04-21T07:19:43.212Z,13.30
2023-04-21T07:22:10.135Z,13.23
2023-04-21T07:24:37.690Z,15.15
2023-04-21T07:27:04.731Z,13.02
2023-04-21T07:29:31.671Z,16.52
2023-04-21T07:31:58.836Z,14.25
2023-04-21T07:34:26.197Z,13.02
2023-04-21T07:36:53.465Z,13.15
2023-04-21T07:39:21.032Z,18.27
2023-04-21T07:41:48.624Z,15.75
2023-04-21T07:44:15.655Z,10.25
2023-04-21T07:46:42.959Z,12.93
2023-04-21T07:49:10.048Z,15.27
2023-04-21T07:51:36.974Z,13.15
2023-04-21T07:54:04.009Z,13.68
2023-04-21T07:56:31.776Z,14.88
2023-04-21T07:58:58.700Z,12.65
2023-04-21T08:01:26.010Z,13.27
2023-04-21T08:03:53.027Z,9.68
2023-04-21T08:06:20.266Z,14.48
2023-04-21T08:08:47.340Z,13.88
2023-04-21T08:11:14.395Z,16.20
2023-04-21T08:13:41.434Z,15.82
2023-04-21T08:16:08.827Z,17.95
2023-04-21T08:18:36.309Z,13.55
2023-04-21T08:21:03.283Z,14.48
2023-04-21T08:23:32.447Z,13.15
2023-04-21T08:25:59.657Z,19.23
2023-04-21T08:28:26.835Z,13.18
2023-04-21T08:30:53.825Z,16.92
2023-04-21T08:33:21.004Z,8.85
2023-04-21T08:36:02.495Z,16.42
2023-04-21T08:38:31.198Z,12.93
2023-04-21T08:41:00.145Z,13.70
2023-04-21T08:43:29.104Z,15.23
2023-04-21T08:45:57.010Z,20.55
2023-04-21T08:48:25.339Z,9.75
2023-04-21T08:50:52.933Z,11.88
2023-04-21T08:53:21.052Z,13.55
2023-04-21T08:56:10.018Z,10.60
2023-04-21T08:58:38.661Z,11.40
2023-04-21T09:01:06.083Z,10.80
2023-04-21T09:03:33.210Z,11.15
2023-04-21T09:06:08.867Z,14.15
2023-04-21T09:08:43.654Z,12.38
2023-04-21T09:11:14.956Z,12.68
2023-04-21T09:13:44.331Z,12.60
2023-04-21T09:16:22.373Z,10.32
2023-04-21T09:18:50.522Z,11.73
2023-04-21T09:21:19.847Z,14.77
2023-04-21T09:23:49.234Z,15.48
2023-04-21T09:26:18.425Z,14.07
2023-04-21T09:28:48.008Z,21.90
2023-04-21T09:31:17.252Z,12.63
2023-04-21T09:33:57.601Z,12.90
2023-04-21T09:36:28.954Z,12.73
2023-04-21T09:41:32.950Z,14.35
2023-04-21T09:44:04.956Z,21.27
2023-04-21T09:46:37.065Z,18.15
2023-04-21T09:49:04.929Z,11.55
2023-04-21T09:56:53.304Z,10.63
2023-04-21T09:59:27.966Z,11.88
2023-04-21T10:01:56.745Z,9.40
2023-04-21T10:04:26.450Z,19.05
2023-04-21T10:06:53.911Z,8.18
2023-04-21T10:09:24.308Z,9.02
2023-04-21T10:11:53.534Z,14.30
2023-04-21T10:14:21.010Z,12.73
2023-04-21T10:17:06.878Z,11.95
2023-04-21T10:19:44.927Z,9.85
2023-04-21T10:22:12.461Z,10.45
2023-04-21T10:24:40.460Z,14.50
2023-04-21T10:27:30.708Z,21.55
2023-04-21T10:29:59.485Z,16.70
2023-04-21T10:32:41.975Z,11.88
2023-04-21T10:35:29.950Z,16.58
2023-04-21T10:37:59.127Z,13.63
2023-04-21T10:43:46.620Z,14.98
2023-04-21T10:46:36.037Z,11.70
2023-04-21T10:49:09.956Z,16.23
2023-04-21T10:51:58.802Z,14.70
2023-04-21T10:54:27.149Z,12.75
2023-04-21T10:56:55.834Z,15.23
2023-04-21T10:59:23.148Z,13.27
2023-04-21T11:01:50.136Z,12.18
2023-04-21T11:04:19.088Z,11.25
2023-04-21T11:07:12.491Z,12.25
2023-04-21T11:09:41.195Z,12.05
2023-04-21T11:12:13.366Z,12.68
2023-04-21T11:14:42.391Z,14.40
2023-04-21T11:17:15.502Z,13.85
2023-04-21T11:19:45.654Z,15.80
2023-04-21T11:22:12.593Z,12.30
2023-04-21T11:24:46.071Z,13.45
2023-04-21T11:27:14.674Z,16.52
2023-04-21T11:29:42.846Z,11.30
2023-04-21T11:32:11.769Z,12.10
2023-04-21T11:34:39.486Z,7.07
2023-04-21T11:37:29.760Z,10.85
2023-04-21T11:40:01.484Z,8.73
2023-04-21T11:42:29.322Z,7.25
2023-04-21T11:44:57.385Z,8.73
2023-04-21T11:47:27.090Z,8.82
2023-04-21T11:49:56.857Z,14.23
2023-04-21T11:52:29.749Z,10.95
2023-04-21T11:55:01.716Z,12.43
2023-04-21T11:57:30.691Z,10.65
2023-04-21T12:00:02.483Z,11.20
2023-04-21T12:02:32.132Z,12.35
2023-04-21T12:05:00.598Z,7.25
2023-04-21T12:07:29.302Z,9.88
2023-04-21T12:09:56.194Z,12.23
2023-04-21T12:12:24.773Z,8.35
2023-04-21T12:14:52.620Z,7.72
2023-04-21T12:17:20.772Z,8.90
2023-04-21T12:19:48.262Z,10.40
2023-04-21T12:22:19.031Z,9.40
2023-04-21T12:24:47.538Z,8.30
2023-04-21T12:27:14.733Z,5.68
2023-04-21T12:29:42.249Z,13.32
2023-04-21T12:32:10.152Z,5.05
2023-04-21T12:34:37.736Z,9.88
2023-04-21T12:37:05.185Z,14.68
2023-04-21T12:39:32.610Z,8.13
2023-04-21T12:42:00.209Z,9.45
2023-04-21T12:44:27.505Z,9.07
2023-04-21T12:46:54.482Z,7.28
2023-04-21T12:49:21.463Z,9.48
2023-04-21T12:51:49.570Z,12.70
2023-04-21T12:54:16.780Z,16.65
2023-04-21T12:56:44.468Z,12.73
2023-04-21T12:59:11.972Z,7.60
2023-04-21T13:01:40.392Z,10.13
2023-04-21T13:04:08.342Z,7.60
2023-04-21T13:06:35.840Z,10.98
2023-04-21T13:09:03.643Z,15.98
2023-04-21T13:11:30.679Z,8.57
2023-04-21T13:13:58.550Z,13.93
2023-04-21T13:16:26.764Z,10.23
2023-04-21T13:18:55.668Z,8.75
2023-04-21T13:21:22.703Z,6.57
2023-04-21T13:23:49.702Z,7.38
2023-04-21T13:26:18.865Z,16.05
2023-04-21T13:28:46.175Z,7.65
2023-04-21T13:31:14.767Z,7.20
2023-04-21T13:33:42.505Z,8.52
2023-04-21T13:36:12.555Z,7.10
2023-04-21T13:38:41.102Z,6.40
2023-04-21T13:41:08.625Z,9.20
2023-04-21T13:43:36.488Z,10.07
2023-04-21T13:46:03.705Z,11.80
2023-04-21T13:48:30.798Z,8.73
2023-04-21T13:50:57.831Z,8.88
2023-04-21T13:53:24.821Z,10.05
2023-04-21T13:55:51.842Z,6.05
2023-04-21T13:58:18.856Z,10.57
2023-04-21T14:00:45.893Z,8.32
2023-04-21T14:03:14.322Z,11.02
2023-04-21T14:05:41.532Z,9.80
2023-04-21T14:08:08.806Z,10.50
2023-04-21T14:10:35.828Z,12.60
2023-04-21T14:13:02.782Z,11.35
2023-04-21T14:15:29.892Z,7.55
2023-04-21T14:17:57.433Z,8.18
2023-04-21T14:20:24.668Z,9.20
2023-04-21T14:22:51.756Z,9.13
2023-04-21T14:25:18.760Z,7.15
2023-04-21T14:27:46.047Z,9.15
2023-04-21T14:30:14.582Z,12.82
2023-04-21T14:32:47.382Z,10.55
2023-04-21T14:35:15.219Z,7.60
2023-04-21T14:37:42.164Z,9.35
2023-04-21T14:40:09.885Z,8.73
2023-04-21T14:42:37.159Z,8.43
2023-04-21T14:45:04.535Z,9.02
2023-04-21T14:47:31.766Z,6.38
2023-04-21T14:49:58.806Z,6.80
2023-04-21T14:52:27.133Z,10.13
2023-04-21T14:54:54.246Z,10.73
2023-04-21T14:57:22.203Z,9.40
2023-04-21T14:59:53.588Z,7.95
2023-04-21T15:04:49.302Z,8.95
2023-04-21T15:07:19.947Z,12.05
2023-04-21T15:09:50.211Z,6.82
2023-04-21T15:12:17.257Z,12.38
2023-04-21T15:14:44.633Z,9.20
2023-04-21T15:17:11.777Z,8.10
2023-04-21T15:19:38.907Z,9.85
2023-04-21T15:22:06.185Z,8.45
2023-04-21T15:24:35.256Z,12.00
2023-04-21T15:27:02.683Z,9.77
2023-04-21T15:29:29.658Z,14.23
2023-04-21T15:31:56.659Z,7.22
2023-04-21T15:34:23.572Z,5.88
2023-04-21T15:36:50.864Z,7.13
2023-04-21T15:39:17.810Z,7.00
2023-04-21T15:41:44.830Z,12.18
2023-04-21T15:44:11.948Z,13.88
2023-04-21T15:46:39.010Z,11.40
2023-04-21T15:49:06.132Z,11.23
2023-04-21T15:51:35.087Z,11.57
2023-04-21T15:54:02.241Z,7.85
2023-04-21T15:56:29.173Z,9.10
2023-04-21T15:58:56.283Z,8.75
2023-04-21T16:01:23.484Z,11.55
2023-04-21T16:03:51.009Z,8.43
2023-04-21T16:06:18.218Z,12.25
2023-04-21T16:08:45.214Z,9.18
2023-04-21T16:11:12.771Z,13.32
2023-04-21T16:13:39.980Z,10.07
2023-04-21T16:16:07.392Z,11.63
2023-04-21T16:18:34.734Z,9.65
2023-04-21T16:21:01.953Z,11.13
2023-04-21T16:23:29.015Z,10.82
2023-04-21T16:25:56.221Z,6.95
2023-04-21T16:28:23.387Z,29.25
2023-04-21T16:30:50.782Z,21.60
2023-04-21T16:33:17.965Z,8.13
2023-04-21T16:35:45.168Z,8.45
2023-04-21T16:38:12.315Z,15.27
2023-04-21T16:40:39.403Z,12.85
2023-04-21T16:43:06.436Z,14.10
2023-04-21T16:45:33.462Z,68.97
2023-04-21T16:48:00.527Z,10.52
2023-04-21T16:50:30.868Z,23.65
2023-04-21T16:52:57.810Z,13.25
2023-04-21T16:55:24.816Z,17.60
2023-04-21T16:57:52.017Z,12.40
2023-04-21T17:00:19.334Z,10.50
2023-04-21T17:02:46.775Z,16.55
2023-04-21T17:05:15.977Z,22.60
2023-04-21T17:07:43.476Z,16.27
2023-04-21T17:10:11.006Z,15.27
2023-04-21T17:12:38.041Z,11.02
2023-04-21T17:15:05.877Z,11.35
2023-04-21T17:17:42.584Z,12.02
2023-04-21T17:20:11.981Z,37.42
2023-04-21T17:22:40.017Z,13.13
2023-04-21T17:25:08.362Z,18.92
2023-04-21T17:27:36.463Z,11.10
2023-04-21T17:30:07.983Z,10.30
2023-04-21T17:35:03.192Z,14.77
2023-04-21T17:37:30.530Z,14.60
2023-04-21T17:39:59.758Z,16.30
2023-04-21T17:42:28.488Z,12.53
2023-04-21T17:44:55.485Z,15.00
2023-04-21T17:47:22.689Z,16.08
2023-04-21T17:49:49.765Z,12.77
2023-04-21T17:52:17.235Z,20.23
2023-04-21T17:54:44.363Z,14.15
2023-04-21T17:57:12.149Z,12.90
2023-04-21T17:59:39.990Z,15.07
2023-04-21T18:02:07.724Z,14.25
2023-04-21T18:04:35.288Z,13.00
2023-04-21T18:07:03.376Z,27.23
2023-04-21T18:09:30.497Z,13.40
2023-04-21T18:11:58.534Z,15.85
2023-04-21T18:14:26.076Z,14.57
2023-04-21T18:16:53.432Z,15.70
2023-04-21T18:19:20.449Z,13.30
2023-04-21T18:21:47.453Z,13.38
2023-04-21T18:24:15.006Z,17.00
2023-04-21T18:26:42.080Z,16.00
2023-04-21T18:29:09.108Z,19.45
2023-04-21T18:31:36.490Z,22.60
2023-04-21T18:34:03.859Z,22.77
2023-04-21T18:36:33.502Z,22.73
2023-04-21T18:39:01.038Z,22.45
2023-04-21T18:41:28.146Z,23.00
2023-04-21T18:43:55.332Z,24.75
2023-04-21T18:46:22.460Z,25.02
2023-04-21T18:48:49.435Z,21.60
2023-04-21T18:51:16.985Z,20.63
2023-04-21T18:53:46.527Z,23.40
2023-04-21T18:56:13.487Z,24.65
2023-04-21T18:58:40.613Z,24.98
2023-04-21T19:01:08.288Z,28.85
2023-04-21T19:03:35.698Z,21.45
2023-04-21T19:06:02.864Z,27.20
2023-04-21T19:08:41.403Z,34.03
2023-04-21T19:11:10.655Z,36.17
2023-04-21T19:13:37.746Z,43.50
2023-04-21T19:16:05.474Z,34.40
2023-04-21T19:18:32.576Z,35.05
2023-04-21T19:20:59.670Z,35.63
2023-04-21T19:23:26.698Z,37.05
2023-04-21T19:25:56.373Z,35.50
2023-04-21T19:28:24.083Z,36.22
2023-04-21T19:30:51.200Z,39.00
2023-04-21T19:33:18.424Z,41.58
2023-04-21T19:35:46.064Z,39.60
2023-04-21T19:38:13.224Z,33.90
2023-04-21T19:40:42.518Z,42.30
2023-04-21T19:43:09.584Z,40.55
2023-04-21T19:45:37.823Z,37.63
2023-04-21T19:48:05.256Z,37.28
2023-04-21T19:50:32.608Z,36.22
2023-04-21T19:52:59.588Z,43.70
2023-04-21T19:55:28.137Z,35.17
2023-04-21T19:57:55.184Z,33.08
2023-04-21T20:00:22.270Z,33.22
2023-04-21T20:02:49.308Z,39.03
2023-04-21T20:05:16.629Z,35.65
2023-04-21T20:07:43.920Z,32.90
2023-04-21T20:10:11.467Z,32.10
2023-04-21T20:12:38.507Z,37.83
2023-04-21T20:15:06.065Z,32.55
2023-04-21T20:17:33.046Z,33.63
2023-04-21T20:20:00.144Z,29.35
2023-04-21T20:22:27.133Z,31.23
2023-04-21T20:24:54.288Z,30.85
2023-04-21T20:27:21.288Z,23.38
2023-04-21T20:29:48.469Z,25.05
2023-04-21T20:32:15.573Z,24.52
2023-04-21T20:34:42.965Z,23.33
2023-04-21T20:37:11.052Z,24.42
2023-04-21T20:39:38.846Z,22.02
2023-04-21T20:42:12.433Z,22.42
2023-04-21T20:44:41.575Z,24.25
2023-04-21T20:47:08.776Z,19.65
2023-04-21T20:49:36.319Z,19.50
2023-04-21T20:52:03.979Z,17.73
2023-04-21T20:54:31.221Z,20.58
2023-04-21T20:56:58.153Z,17.75
2023-04-21T20:59:25.086Z,17.67
2023-04-21T21:01:52.173Z,16.42
2023-04-21T21:04:19.255Z,18.83
2023-04-21T21:06:46.433Z,25.42
2023-04-21T21:09:13.524Z,22.38
2023-04-21T21:11:40.774Z,24.60
2023-04-21T21:14:07.818Z,25.60
2023-04-21T21:16:34.950Z,27.45
2023-04-21T21:19:02.078Z,34.75
2023-04-21T21:21:32.119Z,40.30
2023-04-21T21:23:59.099Z,45.63
2023-04-21T21:26:26.375Z,48.38
2023-04-21T21:28:53.486Z,43.85
2023-04-21T21:31:20.763Z,47.38
2023-04-21T21:33:47.967Z,46.58
2023-04-21T21:36:15.339Z,46.78
2023-04-21T21:38:42.313Z,41.03
2023-04-21T21:41:12.516Z,52.05
2023-04-21T21:43:39.491Z,52.85
2023-04-21T21:46:06.556Z,49.63
2023-04-21T21:48:33.745Z,59.35
2023-04-21T21:51:00.637Z,62.08
2023-04-21T21:53:27.637Z,57.60
2023-04-21T21:55:54.680Z,54.20
2023-04-21T21:58:21.622Z,41.90
2023-04-21T22:00:52.065Z,35.25
2023-04-21T22:03:20.150Z,37.45
2023-04-21T22:05:47.912Z,34.53
2023-04-21T22:08:15.951Z,31.60
2023-04-21T22:10:43.692Z,27.30
2023-04-21T22:13:11.504Z,26.33
2023-04-21T22:15:39.104Z,28.50
2023-04-21T22:18:07.463Z,31.13
2023-04-21T22:20:34.489Z,24.58
2023-04-21T22:23:01.564Z,25.98
2023-04-21T22:25:28.663Z,25.02
2023-04-21T22:27:57.188Z,26.10
2023-04-21T22:30:24.792Z,23.38
2023-04-21T22:32:51.929Z,19.15
2023-04-21T22:35:19.181Z,23.13
2023-04-21T22:37:46.171Z,26.83
2023-04-21T22:40:13.383Z,21.17
2023-04-21T22:42:40.525Z,20.23
2023-04-21T22:45:08.312Z,18.75
2023-04-21T22:47:35.452Z,16.55
2023-04-21T22:50:02.666Z,21.25
2023-04-21T22:52:29.820Z,24.98
2023-04-21T22:54:56.918Z,20.38
2023-04-21T22:57:24.074Z,18.50
2023-04-21T22:59:51.115Z,19.90
2023-04-21T23:02:18.170Z,16.20
2023-04-21T23:04:45.249Z,14.77
2023-04-21T23:07:12.258Z,20.00
2023-04-21T23:09:39.536Z,20.75
2023-04-21T23:12:06.819Z,22.00
2023-04-21T23:14:33.711Z,16.92
2023-04-21T23:17:01.001Z,19.83
2023-04-21T23:19:28.021Z,16.65
2023-04-21T23:21:55.118Z,18.08
2023-04-21T23:24:22.216Z,26.40
2023-04-21T23:26:49.275Z,21.35
2023-04-21T23:29:16.315Z,16.48
2023-04-21T23:31:43.496Z,22.33
2023-04-21T23:34:10.594Z,19.95
2023-04-21T23:36:37.709Z,17.48
2023-04-21T23:39:05.258Z,15.93
2023-04-21T23:41:32.451Z,19.90
2023-04-21T23:44:02.372Z,15.93
2023-04-21T23:46:29.510Z,17.92
2023-04-21T23:48:56.619Z,16.65
2023-04-21T23:51:23.713Z,15.93
2023-04-21T23:53:51.162Z,15.98
2023-04-21T23:56:18.035Z,15.35
2023-04-21T23:58:45.045Z,16.08
